createdAt,value
2019-02-25T00:02:12.318Z,8.00
2019-02-25T00:04:42.543Z,8.00
2019-02-25T00:07:12.797Z,8.40
2019-02-25T00:09:42.589Z,8.30
2019-02-25T00:12:13.583Z,8.13
2019-02-25T00:14:43.140Z,8.00
2019-02-25T00:17:12.763Z,8.67
2019-02-25T00:19:42.480Z,8.47
2019-02-25T00:22:12.300Z,7.63
2019-02-25T00:24:41.888Z,8.73
2019-02-25T00:27:11.486Z,7.57
2019-02-25T00:29:41.074Z,8.10
2019-02-25T00:32:10.853Z,7.13
2019-02-25T00:34:41.009Z,8.90
2019-02-25T00:37:10.752Z,8.40
2019-02-25T00:39:40.647Z,8.83
2019-02-25T00:42:10.292Z,8.97
2019-02-25T00:44:39.885Z,9.10
2019-02-25T00:47:09.589Z,9.53
2019-02-25T00:49:39.300Z,9.00
2019-02-25T00:52:08.866Z,8.63
2019-02-25T00:54:38.554Z,9.00
2019-02-25T00:57:09.047Z,8.40
2019-02-25T00:59:38.712Z,8.30
2019-02-25T01:02:08.422Z,8.87
2019-02-25T01:04:38.101Z,7.87
2019-02-25T01:07:07.862Z,9.10
2019-02-25T01:09:37.650Z,8.57
2019-02-25T01:12:08.244Z,9.67
2019-02-25T01:14:37.920Z,9.17
2019-02-25T01:17:08.007Z,9.20
2019-02-25T01:19:37.669Z,9.03
2019-02-25T01:22:07.252Z,9.47
2019-02-25T01:24:36.851Z,10.10
2019-02-25T01:27:07.024Z,9.53
2019-02-25T01:29:37.440Z,9.25
2019-02-25T01:32:07.298Z,8.80
2019-02-25T01:34:36.863Z,8.63
2019-02-25T01:37:06.918Z,9.03
2019-02-25T01:39:47.966Z,9.50
2019-02-25T06:56:07.340Z,10.65
2019-02-25T06:58:37.044Z,10.82
2019-02-25T07:01:06.944Z,10.70
2019-02-25T07:03:36.616Z,10.95
2019-02-25T07:06:25.654Z,10.37
2019-02-25T07:09:26.269Z,11.30
2019-02-25T07:12:16.552Z,10.93
2019-02-25T07:15:01.698Z,10.73
2019-02-25T07:17:41.627Z,12.00
2019-02-25T07:20:45.612Z,12.10
2019-02-25T07:23:34.173Z,11.10
2019-02-25T07:26:14.332Z,11.27
2019-02-25T07:28:53.741Z,11.90
2019-02-25T07:31:36.248Z,11.03
2019-02-25T07:34:27.942Z,11.60
2019-02-25T07:37:16.410Z,12.23
2019-02-25T07:40:10.865Z,10.97
2019-02-25T07:43:11.332Z,10.73
2019-02-25T07:45:58.337Z,11.17
2019-02-25T07:48:49.727Z,11.47
2019-02-25T07:51:30.617Z,10.80
2019-02-25T07:54:19.095Z,11.80
2019-02-25T07:57:01.491Z,11.97
2019-02-25T07:59:52.813Z,11.47
2019-02-25T08:02:32.248Z,11.20
2019-02-25T08:05:22.632Z,10.70
2019-02-25T08:08:09.668Z,11.10
2019-02-25T08:11:07.363Z,11.53
2019-02-25T08:13:56.713Z,9.90
2019-02-25T08:16:43.877Z,9.87
2019-02-25T08:19:24.136Z,10.00
2019-02-25T08:22:18.652Z,10.13
2019-02-25T08:25:00.383Z,11.10
2019-02-25T08:27:47.541Z,10.93
2019-02-25T08:30:38.391Z,9.80
2019-02-25T08:33:23.862Z,10.37
2019-02-25T08:37:05.230Z,11.90
2019-02-25T08:40:02.652Z,10.20
2019-02-25T08:42:42.385Z,26.83
2019-02-25T08:45:18.365Z,11.10
2019-02-25T08:47:54.377Z,10.57
2019-02-25T08:50:24.063Z,10.73
2019-02-25T08:52:53.961Z,9.60
2019-02-25T08:55:24.948Z,8.80
2019-02-25T08:57:54.684Z,9.80
2019-02-25T09:00:24.368Z,8.40
2019-02-25T09:02:54.241Z,9.17
2019-02-25T09:05:23.879Z,7.57
2019-02-25T09:07:53.876Z,7.63
2019-02-25T09:10:23.604Z,8.70
2019-02-25T09:12:53.446Z,8.47
2019-02-25T09:15:23.210Z,8.97
2019-02-25T09:17:51.168Z,9.33
2019-02-25T09:20:21.078Z,11.13
2019-02-25T09:22:50.818Z,9.20
2019-02-25T09:25:20.537Z,10.60
2019-02-25T09:27:50.329Z,9.57
2019-02-25T09:30:20.064Z,9.60
2019-02-25T09:32:49.732Z,11.20
2019-02-25T09:35:19.686Z,10.47
2019-02-25T09:37:49.336Z,11.20
2019-02-25T09:40:19.104Z,10.63
2019-02-25T09:42:48.809Z,10.00
2019-02-25T09:45:18.512Z,9.47
2019-02-25T09:47:48.313Z,10.13
2019-02-25T09:50:18.187Z,8.63
2019-02-25T09:52:48.333Z,8.53
2019-02-25T09:55:18.390Z,10.03
2019-02-25T09:57:48.058Z,9.13
2019-02-25T10:00:17.855Z,9.27
2019-02-25T10:02:47.397Z,9.57
2019-02-25T10:05:17.265Z,8.63
2019-02-25T10:07:47.017Z,8.90
2019-02-25T10:10:16.862Z,8.23
2019-02-25T10:12:46.568Z,9.20
2019-02-25T10:15:16.645Z,9.10
2019-02-25T10:17:46.257Z,9.03
2019-02-25T10:20:16.044Z,8.47
2019-02-25T10:22:45.787Z,8.30
2019-02-25T10:25:15.577Z,8.60
2019-02-25T10:27:45.126Z,8.70
2019-02-25T10:30:15.045Z,9.40
2019-02-25T10:32:44.642Z,9.40
2019-02-25T10:35:15.275Z,8.87
2019-02-25T10:37:44.873Z,8.93
2019-02-25T10:40:15.503Z,7.97
2019-02-25T10:42:46.668Z,8.67
2019-02-25T10:45:17.114Z,7.80
2019-02-25T10:47:49.012Z,8.77
2019-02-25T10:50:19.144Z,8.23
2019-02-25T10:52:49.502Z,6.97
2019-02-25T10:55:24.338Z,8.20
2019-02-25T10:57:56.597Z,9.57
2019-02-25T11:00:25.293Z,7.73
2019-02-25T11:02:56.432Z,7.80
2019-02-25T11:05:29.956Z,8.43
2019-02-25T11:07:57.828Z,9.67
2019-02-25T11:10:46.175Z,8.50
2019-02-25T11:13:16.303Z,8.27
2019-02-25T11:15:48.131Z,8.57
2019-02-25T11:18:19.571Z,8.97
2019-02-25T11:20:48.659Z,9.00
2019-02-25T11:23:19.437Z,10.40
2019-02-25T11:25:51.364Z,8.83
2019-02-25T11:28:25.427Z,10.40
2019-02-25T11:30:53.848Z,10.10
2019-02-25T11:33:25.258Z,8.90
2019-02-25T11:35:55.210Z,9.80
2019-02-25T11:38:26.144Z,9.60
2019-02-25T11:40:56.476Z,9.63
2019-02-25T11:43:26.294Z,9.90
2019-02-25T11:45:55.855Z,9.20
2019-02-25T11:48:25.616Z,10.60
2019-02-25T11:50:55.532Z,10.27
2019-02-25T11:53:25.819Z,9.30
2019-02-25T11:55:55.622Z,10.37
2019-02-25T11:58:25.431Z,9.77
2019-02-25T12:00:55.089Z,10.33
2019-02-25T12:03:26.130Z,10.10
2019-02-25T12:05:55.760Z,9.73
2019-02-25T12:08:30.203Z,10.03
2019-02-25T12:10:59.934Z,10.03
2019-02-25T12:13:29.612Z,9.70
2019-02-25T12:15:59.339Z,9.97
2019-02-25T12:18:28.981Z,11.07
2019-02-25T12:20:58.699Z,9.80
2019-02-25T12:23:28.290Z,9.47
2019-02-25T12:25:58.011Z,9.90
2019-02-25T12:28:30.856Z,9.67
2019-02-25T12:31:00.623Z,9.33
2019-02-25T12:33:33.975Z,10.40
2019-02-25T12:36:04.021Z,9.30
2019-02-25T12:38:33.879Z,9.40
2019-02-25T12:41:03.595Z,10.50
2019-02-25T12:43:33.959Z,10.90
2019-02-25T12:46:03.782Z,10.13
2019-02-25T12:48:33.546Z,10.20
2019-02-25T12:51:03.267Z,9.17
2019-02-25T12:53:33.095Z,9.77
2019-02-25T12:56:02.815Z,8.97
2019-02-25T12:58:32.435Z,8.93
2019-02-25T13:01:02.144Z,8.93
2019-02-25T13:03:31.769Z,7.80
2019-02-25T13:06:01.685Z,8.30
2019-02-25T13:08:31.459Z,9.00
2019-02-25T13:11:01.198Z,9.20
2019-02-25T13:13:30.961Z,8.37
2019-02-25T13:16:00.672Z,7.27
2019-02-25T13:18:30.319Z,7.23
2019-02-25T13:21:00.003Z,8.73
2019-02-25T13:23:29.681Z,6.63
2019-02-25T13:26:07.258Z,7.03
2019-02-25T13:28:31.044Z,6.23
2019-02-25T13:31:03.262Z,7.23
2019-02-25T13:33:33.475Z,7.70
2019-02-25T13:36:03.185Z,7.33
2019-02-25T13:38:33.197Z,7.10
2019-02-25T13:41:03.027Z,6.73
2019-02-25T13:43:32.760Z,7.10
2019-02-25T13:46:02.609Z,6.73
2019-02-25T13:48:32.280Z,6.10
2019-02-25T13:51:02.526Z,6.33
2019-02-25T13:53:32.171Z,6.70
2019-02-25T13:56:05.760Z,6.10
2019-02-25T13:58:35.508Z,6.07
2019-02-25T14:01:07.254Z,7.03
2019-02-25T14:03:37.087Z,6.50
2019-02-25T14:06:06.820Z,6.80
2019-02-25T14:08:36.499Z,6.70
2019-02-25T14:11:06.210Z,6.30
2019-02-25T14:13:36.012Z,7.30
2019-02-25T14:16:05.731Z,6.37
2019-02-25T14:18:35.821Z,6.27
2019-02-25T14:21:05.981Z,6.27
2019-02-25T14:23:35.648Z,5.63
2019-02-25T14:26:05.331Z,6.40
2019-02-25T14:28:34.950Z,5.60
2019-02-25T14:31:04.620Z,6.63
2019-02-25T14:33:35.825Z,6.30
2019-02-25T14:36:06.247Z,6.60
2019-02-25T14:38:37.220Z,6.30
2019-02-25T14:41:09.039Z,7.77
2019-02-25T14:43:46.174Z,6.80
2019-02-25T14:46:12.091Z,6.83
2019-02-25T14:48:41.878Z,7.20
2019-02-25T14:51:11.811Z,7.33
2019-02-25T14:53:42.291Z,7.13
2019-02-25T14:56:12.710Z,7.03
2019-02-25T14:58:43.014Z,6.80
2019-02-25T15:01:13.580Z,7.57
2019-02-25T15:03:43.326Z,7.03
2019-02-25T15:06:13.142Z,7.23
2019-02-25T15:08:43.051Z,7.30
2019-02-25T15:11:13.138Z,7.20
2019-02-25T15:13:46.273Z,7.23
2019-02-25T15:16:15.853Z,7.50
2019-02-25T15:18:45.562Z,6.60
2019-02-25T15:21:16.019Z,7.60
2019-02-25T15:23:45.908Z,6.37
2019-02-25T15:26:17.368Z,6.93
2019-02-25T15:28:47.903Z,7.10
2019-02-25T15:31:17.495Z,7.60
2019-02-25T15:33:47.474Z,6.90
2019-02-25T15:36:17.794Z,6.13
2019-02-25T15:38:48.528Z,7.30
2019-02-25T15:41:18.084Z,7.60
2019-02-25T15:43:47.813Z,7.50
2019-02-25T15:46:19.580Z,7.47
2019-02-25T15:48:49.888Z,7.50
2019-02-25T15:51:20.031Z,6.90
2019-02-25T15:53:51.901Z,6.90
2019-02-25T15:56:21.376Z,7.30
2019-02-25T15:58:51.279Z,8.67
2019-02-25T16:01:21.604Z,8.20
2019-02-25T16:03:51.618Z,9.00
2019-02-25T16:06:24.779Z,7.90
2019-02-25T16:08:54.331Z,7.77
2019-02-25T16:11:25.650Z,8.43
2019-02-25T16:13:56.234Z,8.10
2019-02-25T16:16:27.147Z,8.90
2019-02-25T16:18:56.730Z,8.67
2019-02-25T16:21:27.186Z,8.80
2019-02-25T16:23:59.340Z,7.40
2019-02-25T16:26:29.643Z,8.20
2019-02-25T16:29:03.951Z,7.30
2019-02-25T16:31:31.479Z,8.10
2019-02-25T16:34:02.073Z,6.97
2019-02-25T16:36:32.844Z,8.27
2019-02-25T16:39:07.671Z,7.97
2019-02-25T16:41:39.285Z,8.57
2019-02-25T16:44:09.471Z,8.07
2019-02-25T16:46:41.233Z,8.67
2019-02-25T16:49:10.655Z,7.20
2019-02-25T16:51:41.305Z,8.23
2019-02-25T16:54:13.406Z,8.10
2019-02-25T16:56:45.744Z,8.10
2019-02-25T16:59:16.165Z,7.90
2019-02-25T17:01:47.215Z,8.07
2019-02-25T17:04:20.557Z,7.60
2019-02-25T17:06:49.141Z,7.27
2019-02-25T17:09:22.672Z,8.63
2019-02-25T17:11:52.430Z,6.97
2019-02-25T17:14:23.863Z,7.83
2019-02-25T17:16:56.620Z,8.03
2019-02-25T17:19:24.716Z,7.77
2019-02-25T17:21:54.314Z,7.93
2019-02-25T17:24:26.477Z,9.30
2019-02-25T17:26:57.330Z,7.13
2019-02-25T17:29:27.332Z,7.63
2019-02-25T17:31:59.582Z,7.30
2019-02-25T17:34:29.607Z,7.80
2019-02-25T17:36:59.705Z,7.73
2019-02-25T17:39:30.742Z,7.53
2019-02-25T17:42:01.414Z,8.53
2019-02-25T17:44:34.353Z,7.80
2019-02-25T17:47:06.548Z,7.87
2019-02-25T17:49:36.591Z,8.40
2019-02-25T17:52:07.904Z,7.63
2019-02-25T17:54:38.147Z,7.53
2019-02-25T17:57:09.806Z,8.10
2019-02-25T17:59:40.611Z,8.13
2019-02-25T18:02:12.724Z,8.70
2019-02-25T18:04:42.457Z,8.60
2019-02-25T18:07:11.985Z,8.20
2019-02-25T18:09:42.717Z,10.30
2019-02-25T18:12:13.047Z,9.33
2019-02-25T18:14:43.251Z,10.10
2019-02-25T18:17:16.674Z,10.07
2019-02-25T18:19:47.821Z,11.80
2019-02-25T18:22:17.465Z,12.23
2019-02-25T18:24:47.409Z,11.17
2019-02-25T18:27:17.474Z,13.57
2019-02-25T18:29:48.166Z,12.27
2019-02-25T18:32:18.650Z,11.43
2019-02-25T18:34:50.048Z,11.50
2019-02-25T18:37:19.979Z,10.80
2019-02-25T18:39:50.137Z,11.93
2019-02-25T18:42:21.085Z,13.80
2019-02-25T18:44:51.273Z,10.73
2019-02-25T18:47:23.465Z,11.47
2019-02-25T18:49:54.363Z,13.97
2019-02-25T18:52:25.936Z,10.73
2019-02-25T18:54:56.791Z,9.47
2019-02-25T18:57:27.352Z,10.40
2019-02-25T18:59:59.437Z,11.27
2019-02-25T19:02:30.052Z,9.30
2019-02-25T19:05:02.692Z,10.23
2019-02-25T19:07:33.767Z,10.80
2019-02-25T19:10:03.642Z,11.63
2019-02-25T19:12:33.919Z,10.53
2019-02-25T19:15:04.928Z,10.77
2019-02-25T19:17:34.903Z,11.93
2019-02-25T19:20:05.468Z,14.40
2019-02-25T19:22:36.048Z,12.47
2019-02-25T19:25:09.423Z,13.57
2019-02-25T19:27:38.372Z,12.23
2019-02-25T19:30:09.050Z,14.87
2019-02-25T19:32:40.423Z,13.80
2019-02-25T19:35:10.350Z,11.40
2019-02-25T19:37:42.173Z,11.03
2019-02-25T19:40:14.930Z,11.60
2019-02-25T19:42:47.353Z,11.77
2019-02-25T19:45:15.973Z,11.77
2019-02-25T19:47:45.852Z,13.10
2019-02-25T19:50:15.766Z,12.90
2019-02-25T19:52:46.648Z,11.23
2019-02-25T19:55:18.377Z,13.00
2019-02-25T20:00:28.218Z,11.70
2019-02-25T20:03:05.222Z,12.87
2019-02-25T20:05:30.585Z,14.03
2019-02-25T20:08:00.412Z,12.90
2019-02-25T20:10:30.731Z,12.67
2019-02-25T20:13:05.260Z,13.70
2019-02-25T20:15:32.798Z,12.93
2019-02-25T20:18:03.559Z,14.03
2019-02-25T20:20:38.425Z,14.30
2019-02-25T20:23:08.590Z,14.67
2019-02-25T20:25:42.344Z,15.20
2019-02-25T20:28:12.880Z,14.00
2019-02-25T20:30:43.023Z,16.23
2019-02-25T20:33:14.120Z,18.33
2019-02-25T20:35:49.001Z,16.53
2019-02-25T20:38:15.215Z,16.10
2019-02-25T20:40:47.087Z,15.40
2019-02-25T20:43:19.288Z,15.87
2019-02-25T20:45:48.157Z,16.03
2019-02-25T20:48:18.967Z,16.63
2019-02-25T20:50:48.680Z,16.80
2019-02-25T20:53:18.427Z,16.30
2019-02-25T20:55:52.520Z,14.90
2019-02-25T20:58:23.227Z,15.33
2019-02-25T21:00:52.851Z,15.97
2019-02-25T21:03:23.239Z,15.77
2019-02-25T21:05:53.868Z,17.50
2019-02-25T21:08:23.629Z,17.60
2019-02-25T21:10:53.789Z,17.57
2019-02-25T21:13:25.952Z,17.47
2019-02-25T21:15:54.791Z,17.13
2019-02-25T21:18:25.036Z,18.53
2019-02-25T21:20:57.450Z,19.60
2019-02-25T21:23:27.114Z,19.10
2019-02-25T21:25:59.500Z,17.90
2019-02-25T21:28:30.962Z,21.57
2019-02-25T21:30:59.234Z,20.07
2019-02-25T21:33:30.399Z,19.43
2019-02-25T21:36:00.380Z,18.23
2019-02-25T21:38:30.380Z,18.27
2019-02-25T21:41:01.139Z,17.20
2019-02-25T21:43:31.051Z,16.50
2019-02-25T21:46:01.654Z,17.17
2019-02-25T21:48:32.436Z,15.30
2019-02-25T21:51:06.638Z,15.43
2019-02-25T21:53:34.498Z,15.17
2019-02-25T21:56:04.878Z,14.50
2019-02-25T21:58:34.659Z,14.53
2019-02-25T22:01:04.676Z,15.90
2019-02-25T22:03:39.503Z,13.50
2019-02-25T22:06:06.216Z,14.50
2019-02-25T22:08:36.265Z,14.63
2019-02-25T22:11:12.377Z,14.50
2019-02-25T22:13:37.252Z,13.87
2019-02-25T22:16:08.050Z,13.90
2019-02-25T22:18:38.127Z,13.70
2019-02-25T22:21:09.439Z,13.00
2019-02-25T22:23:39.351Z,26.77
2019-02-25T22:26:09.329Z,15.30
2019-02-25T22:28:39.490Z,14.50
2019-02-25T22:31:10.912Z,14.53
2019-02-25T22:33:40.831Z,15.53
2019-02-25T22:36:10.360Z,13.30
2019-02-25T22:38:40.006Z,14.73
2019-02-25T22:41:09.813Z,15.10
2019-02-25T22:43:41.338Z,14.80
2019-02-25T22:46:11.638Z,15.20
2019-02-25T22:48:43.277Z,14.30
2019-02-25T22:51:12.767Z,14.77
2019-02-25T22:53:42.449Z,16.63
2019-02-25T22:56:13.567Z,15.67
2019-02-25T22:58:43.446Z,17.17
2019-02-25T23:01:18.061Z,15.10
2019-02-25T23:03:49.777Z,16.83
2019-02-25T23:06:20.755Z,15.53
2019-02-25T23:08:51.205Z,16.33
2019-02-25T23:11:24.337Z,16.37
2019-02-25T23:13:54.809Z,15.73
2019-02-25T23:16:25.463Z,15.57
2019-02-25T23:18:55.177Z,18.37
2019-02-25T23:21:26.956Z,16.23
2019-02-25T23:23:58.217Z,16.63
2019-02-25T23:26:27.455Z,15.50
2019-02-25T23:28:58.107Z,14.90
2019-02-25T23:31:29.949Z,16.10
2019-02-25T23:34:00.131Z,16.17
2019-02-25T23:36:29.835Z,15.43
2019-02-25T23:39:00.096Z,15.37
2019-02-25T23:41:34.343Z,14.73
2019-02-25T23:44:02.430Z,14.83
2019-02-25T23:46:34.487Z,15.73
2019-02-25T23:49:04.111Z,17.00
2019-02-25T23:51:33.635Z,15.80
2019-02-25T23:54:03.268Z,16.37
2019-02-25T23:56:32.803Z,16.00
2019-02-25T23:59:02.488Z,16.23
